sensor_id;sensor_type;location;lat;lon;timestamp;P1;durP1;ratioP1;P2;durP2;ratioP2
77146;SDS011;66121;52.584;9.694;2024-01-15T00:00:10;19.03;;;7.30;;
77146;SDS011;66121;52.584;9.694;2024-01-15T00:02:36;19.00;;;9.18;;
77146;SDS011;66121;52.584;9.694;2024-01-15T00:05:02;20.73;;;7.93;;
77146;SDS011;66121;52.584;9.694;2024-01-15T00:07:27;21.17;;;8.52;;
77146;SDS011;66121;52.584;9.694;2024-01-15T00:09:52;19.90;;;6.70;;
77146;SDS011;66121;52.584;9.694;2024-01-15T00:12:18;18.77;;;8.23;;
77146;SDS011;66121;52.584;9.694;2024-01-15T00:14:43;15.93;;;6.87;;
77146;SDS011;66121;52.584;9.694;2024-01-15T00:17:08;13.97;;;7.20;;
77146;SDS011;66121;52.584;9.694;2024-01-15T00:19:33;18.00;;;6.73;;
77146;SDS011;66121;52.584;9.694;2024-01-15T00:21:59;17.10;;;6.50;;
77146;SDS011;66121;52.584;9.694;2024-01-15T00:24:24;15.30;;;6.07;;
77146;SDS011;66121;52.584;9.694;2024-01-15T00:26:50;12.02;;;5.60;;
77146;SDS011;66121;52.584;9.694;2024-01-15T00:29:15;14.57;;;6.22;;
77146;SDS011;66121;52.584;9.694;2024-01-15T00:31:40;10.63;;;5.22;;
77146;SDS011;66121;52.584;9.694;2024-01-15T00:34:06;15.67;;;6.97;;
77146;SDS011;66121;52.584;9.694;2024-01-15T00:36:31;11.60;;;5.93;;
77146;SDS011;66121;52.584;9.694;2024-01-15T00:38:56;19.33;;;5.82;;
77146;SDS011;66121;52.584;9.694;2024-01-15T00:41:22;11.43;;;5.47;;
77146;SDS011;66121;52.584;9.694;2024-01-15T00:43:47;13.60;;;5.47;;
77146;SDS011;66121;52.584;9.694;2024-01-15T00:46:16;15.25;;;5.68;;
77146;SDS011;66121;52.584;9.694;2024-01-15T00:48:41;9.40;;;4.90;;
77146;SDS011;66121;52.584;9.694;2024-01-15T00:51:06;12.20;;;4.88;;
77146;SDS011;66121;52.584;9.694;2024-01-15T00:53:32;10.85;;;4.65;;
77146;SDS011;66121;52.584;9.694;2024-01-15T00:55:57;13.30;;;4.68;;
77146;SDS011;66121;52.584;9.694;2024-01-15T00:58:22;12.05;;;4.90;;
77146;SDS011;66121;52.584;9.694;2024-01-15T01:00:48;15.25;;;4.93;;
77146;SDS011;66121;52.584;9.694;2024-01-15T01:03:13;11.48;;;4.82;;
77146;SDS011;66121;52.584;9.694;2024-01-15T01:05:39;12.90;;;5.32;;
77146;SDS011;66121;52.584;9.694;2024-01-15T01:08:04;14.52;;;4.85;;
77146;SDS011;66121;52.584;9.694;2024-01-15T01:10:30;10.60;;;3.78;;
77146;SDS011;66121;52.584;9.694;2024-01-15T01:12:55;9.25;;;4.18;;
77146;SDS011;66121;52.584;9.694;2024-01-15T01:15:21;9.57;;;3.65;;
77146;SDS011;66121;52.584;9.694;2024-01-15T01:17:46;11.02;;;3.60;;
77146;SDS011;66121;52.584;9.694;2024-01-15T01:20:11;14.75;;;4.32;;
77146;SDS011;66121;52.584;9.694;2024-01-15T01:22:37;8.30;;;3.47;;
77146;SDS011;66121;52.584;9.694;2024-01-15T01:25:02;10.15;;;3.50;;
77146;SDS011;66121;52.584;9.694;2024-01-15T01:27:28;7.93;;;2.97;;
77146;SDS011;66121;52.584;9.694;2024-01-15T01:29:53;8.93;;;4.63;;
77146;SDS011;66121;52.584;9.694;2024-01-15T01:32:19;10.13;;;3.08;;
77146;SDS011;66121;52.584;9.694;2024-01-15T01:34:44;12.90;;;3.17;;
77146;SDS011;66121;52.584;9.694;2024-01-15T01:37:10;12.30;;;3.73;;
77146;SDS011;66121;52.584;9.694;2024-01-15T01:39:38;8.15;;;3.20;;
77146;SDS011;66121;52.584;9.694;2024-01-15T01:42:04;7.22;;;3.42;;
77146;SDS011;66121;52.584;9.694;2024-01-15T01:44:29;13.35;;;4.22;;
77146;SDS011;66121;52.584;9.694;2024-01-15T01:46:55;8.47;;;3.67;;
77146;SDS011;66121;52.584;9.694;2024-01-15T01:49:22;7.78;;;3.70;;
77146;SDS011;66121;52.584;9.694;2024-01-15T01:51:49;6.00;;;3.28;;
77146;SDS011;66121;52.584;9.694;2024-01-15T01:54:15;9.98;;;3.63;;
77146;SDS011;66121;52.584;9.694;2024-01-15T01:56:41;9.27;;;3.55;;
77146;SDS011;66121;52.584;9.694;2024-01-15T01:59:07;10.55;;;3.22;;
77146;SDS011;66121;52.584;9.694;2024-01-15T02:01:34;9.13;;;3.38;;
77146;SDS011;66121;52.584;9.694;2024-01-15T02:04:00;9.77;;;2.97;;
77146;SDS011;66121;52.584;9.694;2024-01-15T02:06:26;9.20;;;3.40;;
77146;SDS011;66121;52.584;9.694;2024-01-15T02:08:52;9.02;;;3.20;;
77146;SDS011;66121;52.584;9.694;2024-01-15T02:11:18;5.50;;;2.55;;
77146;SDS011;66121;52.584;9.694;2024-01-15T02:13:43;7.65;;;3.70;;
77146;SDS011;66121;52.584;9.694;2024-01-15T02:16:09;13.98;;;2.80;;
77146;SDS011;66121;52.584;9.694;2024-01-15T02:18:40;4.80;;;2.00;;
77146;SDS011;66121;52.584;9.694;2024-01-15T02:21:06;5.38;;;2.60;;
77146;SDS011;66121;52.584;9.694;2024-01-15T02:23:32;6.63;;;2.92;;
77146;SDS011;66121;52.584;9.694;2024-01-15T02:25:57;5.27;;;2.60;;
77146;SDS011;66121;52.584;9.694;2024-01-15T02:28:23;6.85;;;2.97;;
77146;SDS011;66121;52.584;9.694;2024-01-15T02:30:48;6.75;;;3.10;;
77146;SDS011;66121;52.584;9.694;2024-01-15T02:33:14;5.53;;;2.08;;
77146;SDS011;66121;52.584;9.694;2024-01-15T02:35:39;9.60;;;2.87;;
77146;SDS011;66121;52.584;9.694;2024-01-15T02:38:05;5.05;;;2.40;;
77146;SDS011;66121;52.584;9.694;2024-01-15T02:40:31;6.90;;;2.60;;
77146;SDS011;66121;52.584;9.694;2024-01-15T02:42:57;6.28;;;2.70;;
77146;SDS011;66121;52.584;9.694;2024-01-15T02:45:22;17.83;;;3.23;;
77146;SDS011;66121;52.584;9.694;2024-01-15T02:47:48;7.53;;;2.28;;
77146;SDS011;66121;52.584;9.694;2024-01-15T02:50:14;7.85;;;2.17;;
77146;SDS011;66121;52.584;9.694;2024-01-15T02:52:39;5.82;;;1.85;;
77146;SDS011;66121;52.584;9.694;2024-01-15T02:55:05;5.55;;;1.40;;
77146;SDS011;66121;52.584;9.694;2024-01-15T02:57:30;8.27;;;2.30;;
77146;SDS011;66121;52.584;9.694;2024-01-15T02:59:56;6.70;;;2.08;;
77146;SDS011;66121;52.584;9.694;2024-01-15T03:02:21;3.40;;;1.60;;
77146;SDS011;66121;52.584;9.694;2024-01-15T03:04:47;7.78;;;2.20;;
77146;SDS011;66121;52.584;9.694;2024-01-15T03:07:12;6.30;;;2.05;;
77146;SDS011;66121;52.584;9.694;2024-01-15T03:09:37;9.65;;;1.88;;
77146;SDS011;66121;52.584;9.694;2024-01-15T03:12:03;7.05;;;2.13;;
77146;SDS011;66121;52.584;9.694;2024-01-15T03:14:29;5.50;;;1.48;;
77146;SDS011;66121;52.584;9.694;2024-01-15T03:16:54;6.60;;;1.58;;
77146;SDS011;66121;52.584;9.694;2024-01-15T03:19:19;8.20;;;1.98;;
77146;SDS011;66121;52.584;9.694;2024-01-15T03:21:45;7.88;;;1.45;;
77146;SDS011;66121;52.584;9.694;2024-01-15T03:24:10;3.20;;;1.60;;
77146;SDS011;66121;52.584;9.694;2024-01-15T03:26:35;7.97;;;2.08;;
77146;SDS011;66121;52.584;9.694;2024-01-15T03:29:01;4.43;;;2.10;;
77146;SDS011;66121;52.584;9.694;2024-01-15T03:31:26;5.28;;;1.38;;
77146;SDS011;66121;52.584;9.694;2024-01-15T03:33:52;2.28;;;1.77;;
77146;SDS011;66121;52.584;9.694;2024-01-15T03:36:17;3.97;;;1.75;;
77146;SDS011;66121;52.584;9.694;2024-01-15T03:38:42;4.85;;;1.63;;
77146;SDS011;66121;52.584;9.694;2024-01-15T03:41:08;4.45;;;1.45;;
77146;SDS011;66121;52.584;9.694;2024-01-15T03:43:33;8.38;;;1.77;;
77146;SDS011;66121;52.584;9.694;2024-01-15T03:45:59;10.32;;;1.50;;
77146;SDS011;66121;52.584;9.694;2024-01-15T03:48:24;10.18;;;2.00;;
77146;SDS011;66121;52.584;9.694;2024-01-15T03:50:49;12.57;;;2.00;;
77146;SDS011;66121;52.584;9.694;2024-01-15T03:53:15;6.18;;;1.85;;
77146;SDS011;66121;52.584;9.694;2024-01-15T03:55:40;8.85;;;2.20;;
77146;SDS011;66121;52.584;9.694;2024-01-15T03:58:07;7.15;;;1.92;;
77146;SDS011;66121;52.584;9.694;2024-01-15T04:00:32;7.75;;;1.73;;
77146;SDS011;66121;52.584;9.694;2024-01-15T04:02:58;19.40;;;2.40;;
77146;SDS011;66121;52.584;9.694;2024-01-15T04:05:23;9.30;;;2.38;;
77146;SDS011;66121;52.584;9.694;2024-01-15T04:07:48;2.17;;;1.42;;
77146;SDS011;66121;52.584;9.694;2024-01-15T04:10:14;4.35;;;1.38;;
77146;SDS011;66121;52.584;9.694;2024-01-15T04:12:39;8.97;;;1.30;;
77146;SDS011;66121;52.584;9.694;2024-01-15T04:15:05;4.03;;;1.42;;
77146;SDS011;66121;52.584;9.694;2024-01-15T04:17:30;13.45;;;2.50;;
77146;SDS011;66121;52.584;9.694;2024-01-15T04:19:56;4.53;;;1.60;;
77146;SDS011;66121;52.584;9.694;2024-01-15T04:22:21;9.00;;;2.43;;
77146;SDS011;66121;52.584;9.694;2024-01-15T04:24:46;7.88;;;1.65;;
77146;SDS011;66121;52.584;9.694;2024-01-15T04:27:12;4.03;;;1.40;;
77146;SDS011;66121;52.584;9.694;2024-01-15T04:29:37;5.63;;;2.10;;
77146;SDS011;66121;52.584;9.694;2024-01-15T04:32:04;2.28;;;1.45;;
77146;SDS011;66121;52.584;9.694;2024-01-15T04:34:29;3.97;;;1.00;;
77146;SDS011;66121;52.584;9.694;2024-01-15T04:36:55;9.20;;;2.55;;
77146;SDS011;66121;52.584;9.694;2024-01-15T04:39:20;10.10;;;2.22;;
77146;SDS011;66121;52.584;9.694;2024-01-15T04:41:45;5.80;;;2.15;;
77146;SDS011;66121;52.584;9.694;2024-01-15T04:44:11;5.50;;;2.50;;
77146;SDS011;66121;52.584;9.694;2024-01-15T04:46:36;7.53;;;2.25;;
77146;SDS011;66121;52.584;9.694;2024-01-15T04:49:01;8.03;;;1.87;;
77146;SDS011;66121;52.584;9.694;2024-01-15T04:51:27;8.57;;;2.28;;
77146;SDS011;66121;52.584;9.694;2024-01-15T04:53:52;6.53;;;2.27;;
77146;SDS011;66121;52.584;9.694;2024-01-15T04:56:17;7.43;;;1.57;;
77146;SDS011;66121;52.584;9.694;2024-01-15T04:58:43;7.20;;;2.38;;
77146;SDS011;66121;52.584;9.694;2024-01-15T05:01:08;9.07;;;2.15;;
77146;SDS011;66121;52.584;9.694;2024-01-15T05:03:35;9.75;;;2.47;;
77146;SDS011;66121;52.584;9.694;2024-01-15T05:06:00;6.13;;;1.65;;
77146;SDS011;66121;52.584;9.694;2024-01-15T05:08:26;8.98;;;2.85;;
77146;SDS011;66121;52.584;9.694;2024-01-15T05:10:51;5.15;;;2.13;;
77146;SDS011;66121;52.584;9.694;2024-01-15T05:13:16;12.03;;;1.93;;
77146;SDS011;66121;52.584;9.694;2024-01-15T05:15:42;14.52;;;3.50;;
77146;SDS011;66121;52.584;9.694;2024-01-15T05:18:07;10.13;;;2.20;;
77146;SDS011;66121;52.584;9.694;2024-01-15T05:20:33;5.03;;;1.92;;
77146;SDS011;66121;52.584;9.694;2024-01-15T05:22:58;6.70;;;2.17;;
77146;SDS011;66121;52.584;9.694;2024-01-15T05:25:23;6.93;;;2.20;;
77146;SDS011;66121;52.584;9.694;2024-01-15T05:27:49;6.45;;;2.30;;
77146;SDS011;66121;52.584;9.694;2024-01-15T05:30:14;8.85;;;2.22;;
77146;SDS011;66121;52.584;9.694;2024-01-15T05:32:40;12.48;;;2.13;;
77146;SDS011;66121;52.584;9.694;2024-01-15T05:35:05;5.80;;;2.30;;
77146;SDS011;66121;52.584;9.694;2024-01-15T05:37:31;3.67;;;1.60;;
77146;SDS011;66121;52.584;9.694;2024-01-15T05:39:56;4.38;;;1.40;;
77146;SDS011;66121;52.584;9.694;2024-01-15T05:42:21;4.53;;;2.40;;
77146;SDS011;66121;52.584;9.694;2024-01-15T05:44:47;6.85;;;1.92;;
77146;SDS011;66121;52.584;9.694;2024-01-15T05:47:12;9.30;;;2.08;;
77146;SDS011;66121;52.584;9.694;2024-01-15T05:49:37;11.27;;;2.03;;
77146;SDS011;66121;52.584;9.694;2024-01-15T05:52:03;9.40;;;2.05;;
77146;SDS011;66121;52.584;9.694;2024-01-15T05:54:29;7.88;;;1.85;;
77146;SDS011;66121;52.584;9.694;2024-01-15T05:56:54;9.17;;;2.00;;
77146;SDS011;66121;52.584;9.694;2024-01-15T05:59:20;5.78;;;1.83;;
77146;SDS011;66121;52.584;9.694;2024-01-15T06:01:45;2.63;;;1.63;;
77146;SDS011;66121;52.584;9.694;2024-01-15T06:04:10;4.60;;;1.87;;
77146;SDS011;66121;52.584;9.694;2024-01-15T06:06:35;6.43;;;1.65;;
77146;SDS011;66121;52.584;9.694;2024-01-15T06:09:01;7.57;;;1.90;;
77146;SDS011;66121;52.584;9.694;2024-01-15T06:11:30;3.53;;;2.00;;
77146;SDS011;66121;52.584;9.694;2024-01-15T06:13:59;9.20;;;2.83;;
77146;SDS011;66121;52.584;9.694;2024-01-15T06:16:28;8.93;;;2.13;;
77146;SDS011;66121;52.584;9.694;2024-01-15T06:18:53;5.13;;;2.17;;
77146;SDS011;66121;52.584;9.694;2024-01-15T06:21:19;8.80;;;2.03;;
77146;SDS011;66121;52.584;9.694;2024-01-15T06:23:44;5.60;;;1.85;;
77146;SDS011;66121;52.584;9.694;2024-01-15T06:26:13;8.50;;;1.73;;
77146;SDS011;66121;52.584;9.694;2024-01-15T06:28:38;5.70;;;1.90;;
77146;SDS011;66121;52.584;9.694;2024-01-15T06:31:03;12.45;;;3.17;;
77146;SDS011;66121;52.584;9.694;2024-01-15T06:33:30;10.13;;;3.05;;
77146;SDS011;66121;52.584;9.694;2024-01-15T06:35:56;4.55;;;2.78;;
77146;SDS011;66121;52.584;9.694;2024-01-15T06:38:21;4.97;;;1.85;;
77146;SDS011;66121;52.584;9.694;2024-01-15T06:40:46;6.72;;;2.30;;
77146;SDS011;66121;52.584;9.694;2024-01-15T06:43:13;6.60;;;2.60;;
77146;SDS011;66121;52.584;9.694;2024-01-15T06:45:39;13.80;;;2.60;;
77146;SDS011;66121;52.584;9.694;2024-01-15T06:48:04;8.07;;;3.28;;
77146;SDS011;66121;52.584;9.694;2024-01-15T06:50:30;5.95;;;2.00;;
77146;SDS011;66121;52.584;9.694;2024-01-15T06:52:55;9.13;;;2.30;;
77146;SDS011;66121;52.584;9.694;2024-01-15T06:55:21;16.13;;;2.45;;
77146;SDS011;66121;52.584;9.694;2024-01-15T06:57:46;5.43;;;1.85;;
77146;SDS011;66121;52.584;9.694;2024-01-15T07:00:12;14.27;;;2.55;;
77146;SDS011;66121;52.584;9.694;2024-01-15T07:02:38;9.10;;;3.10;;
77146;SDS011;66121;52.584;9.694;2024-01-15T07:05:03;8.70;;;2.67;;
77146;SDS011;66121;52.584;9.694;2024-01-15T07:07:30;14.55;;;2.63;;
77146;SDS011;66121;52.584;9.694;2024-01-15T07:09:56;8.80;;;2.28;;
77146;SDS011;66121;52.584;9.694;2024-01-15T07:12:22;5.65;;;1.98;;
77146;SDS011;66121;52.584;9.694;2024-01-15T07:14:48;8.57;;;2.33;;
77146;SDS011;66121;52.584;9.694;2024-01-15T07:17:14;4.65;;;2.17;;
77146;SDS011;66121;52.584;9.694;2024-01-15T07:19:39;4.38;;;1.80;;
77146;SDS011;66121;52.584;9.694;2024-01-15T07:22:04;4.07;;;1.98;;
77146;SDS011;66121;52.584;9.694;2024-01-15T07:24:30;10.93;;;1.92;;
77146;SDS011;66121;52.584;9.694;2024-01-15T07:26:55;7.28;;;2.15;;
77146;SDS011;66121;52.584;9.694;2024-01-15T07:29:20;5.30;;;1.53;;
77146;SDS011;66121;52.584;9.694;2024-01-15T07:31:49;4.13;;;2.00;;
77146;SDS011;66121;52.584;9.694;2024-01-15T07:34:15;10.40;;;2.10;;
77146;SDS011;66121;52.584;9.694;2024-01-15T07:36:41;5.88;;;2.17;;
77146;SDS011;66121;52.584;9.694;2024-01-15T07:39:07;6.20;;;1.92;;
77146;SDS011;66121;52.584;9.694;2024-01-15T07:41:32;7.28;;;2.47;;
77146;SDS011;66121;52.584;9.694;2024-01-15T07:43:57;8.10;;;2.10;;
77146;SDS011;66121;52.584;9.694;2024-01-15T07:46:23;4.88;;;2.47;;
77146;SDS011;66121;52.584;9.694;2024-01-15T07:48:49;7.03;;;2.30;;
77146;SDS011;66121;52.584;9.694;2024-01-15T07:51:21;4.57;;;2.10;;
77146;SDS011;66121;52.584;9.694;2024-01-15T07:53:46;2.92;;;1.92;;
77146;SDS011;66121;52.584;9.694;2024-01-15T07:56:11;6.50;;;2.67;;
77146;SDS011;66121;52.584;9.694;2024-01-15T07:58:37;8.77;;;2.90;;
77146;SDS011;66121;52.584;9.694;2024-01-15T08:01:02;7.30;;;2.25;;
77146;SDS011;66121;52.584;9.694;2024-01-15T08:03:27;8.52;;;2.75;;
77146;SDS011;66121;52.584;9.694;2024-01-15T08:05:53;9.60;;;4.13;;
77146;SDS011;66121;52.584;9.694;2024-01-15T08:08:19;7.07;;;2.75;;
77146;SDS011;66121;52.584;9.694;2024-01-15T08:10:46;4.55;;;2.88;;
77146;SDS011;66121;52.584;9.694;2024-01-15T08:13:12;4.60;;;2.00;;
77146;SDS011;66121;52.584;9.694;2024-01-15T08:15:37;4.77;;;2.37;;
77146;SDS011;66121;52.584;9.694;2024-01-15T08:18:02;4.63;;;2.27;;
77146;SDS011;66121;52.584;9.694;2024-01-15T08:20:28;5.85;;;2.50;;
77146;SDS011;66121;52.584;9.694;2024-01-15T08:22:53;6.80;;;2.40;;
77146;SDS011;66121;52.584;9.694;2024-01-15T08:25:19;4.85;;;1.95;;
77146;SDS011;66121;52.584;9.694;2024-01-15T08:27:44;3.50;;;2.30;;
77146;SDS011;66121;52.584;9.694;2024-01-15T08:30:10;4.87;;;2.13;;
77146;SDS011;66121;52.584;9.694;2024-01-15T08:32:35;3.55;;;2.05;;
77146;SDS011;66121;52.584;9.694;2024-01-15T08:35:05;6.95;;;2.30;;
77146;SDS011;66121;52.584;9.694;2024-01-15T08:37:31;8.48;;;2.15;;
77146;SDS011;66121;52.584;9.694;2024-01-15T08:39:56;4.00;;;2.40;;
77146;SDS011;66121;52.584;9.694;2024-01-15T08:42:22;9.03;;;2.77;;
77146;SDS011;66121;52.584;9.694;2024-01-15T08:44:47;8.03;;;2.50;;
77146;SDS011;66121;52.584;9.694;2024-01-15T08:47:12;5.43;;;2.93;;
77146;SDS011;66121;52.584;9.694;2024-01-15T08:49:37;5.13;;;2.15;;
77146;SDS011;66121;52.584;9.694;2024-01-15T08:52:03;7.22;;;2.90;;
77146;SDS011;66121;52.584;9.694;2024-01-15T08:54:28;6.70;;;2.63;;
77146;SDS011;66121;52.584;9.694;2024-01-15T08:56:54;6.68;;;2.83;;
77146;SDS011;66121;52.584;9.694;2024-01-15T08:59:19;7.50;;;2.47;;
77146;SDS011;66121;52.584;9.694;2024-01-15T09:01:49;6.45;;;2.60;;
77146;SDS011;66121;52.584;9.694;2024-01-15T09:04:15;3.67;;;1.67;;
77146;SDS011;66121;52.584;9.694;2024-01-15T09:06:41;5.97;;;2.10;;
77146;SDS011;66121;52.584;9.694;2024-01-15T09:09:10;6.18;;;2.78;;
77146;SDS011;66121;52.584;9.694;2024-01-15T09:11:36;4.53;;;2.65;;
77146;SDS011;66121;52.584;9.694;2024-01-15T09:14:01;7.15;;;2.75;;
77146;SDS011;66121;52.584;9.694;2024-01-15T09:16:27;4.80;;;2.22;;
77146;SDS011;66121;52.584;9.694;2024-01-15T09:18:52;7.40;;;3.10;;
77146;SDS011;66121;52.584;9.694;2024-01-15T09:21:17;6.72;;;3.15;;
77146;SDS011;66121;52.584;9.694;2024-01-15T09:23:43;6.65;;;2.50;;
77146;SDS011;66121;52.584;9.694;2024-01-15T09:26:08;6.25;;;2.45;;
77146;SDS011;66121;52.584;9.694;2024-01-15T09:28:34;7.22;;;3.15;;
77146;SDS011;66121;52.584;9.694;2024-01-15T09:30:59;6.75;;;2.70;;
77146;SDS011;66121;52.584;9.694;2024-01-15T09:33:25;11.23;;;3.38;;
77146;SDS011;66121;52.584;9.694;2024-01-15T09:35:50;7.75;;;2.83;;
77146;SDS011;66121;52.584;9.694;2024-01-15T09:38:15;6.68;;;2.70;;
77146;SDS011;66121;52.584;9.694;2024-01-15T09:40:43;6.00;;;2.55;;
77146;SDS011;66121;52.584;9.694;2024-01-15T09:43:11;4.35;;;2.40;;
77146;SDS011;66121;52.584;9.694;2024-01-15T09:45:38;6.18;;;2.08;;
77146;SDS011;66121;52.584;9.694;2024-01-15T09:48:04;3.47;;;2.30;;
77146;SDS011;66121;52.584;9.694;2024-01-15T09:50:30;5.20;;;2.05;;
77146;SDS011;66121;52.584;9.694;2024-01-15T09:52:55;6.85;;;2.40;;
77146;SDS011;66121;52.584;9.694;2024-01-15T09:55:22;5.90;;;2.05;;
77146;SDS011;66121;52.584;9.694;2024-01-15T09:57:48;6.43;;;1.88;;
77146;SDS011;66121;52.584;9.694;2024-01-15T10:00:14;5.43;;;1.90;;
77146;SDS011;66121;52.584;9.694;2024-01-15T10:02:42;5.43;;;2.20;;
77146;SDS011;66121;52.584;9.694;2024-01-15T10:05:07;7.27;;;2.57;;
77146;SDS011;66121;52.584;9.694;2024-01-15T10:07:34;3.97;;;1.92;;
77146;SDS011;66121;52.584;9.694;2024-01-15T10:10:01;3.85;;;1.83;;
77146;SDS011;66121;52.584;9.694;2024-01-15T10:12:26;12.52;;;2.35;;
77146;SDS011;66121;52.584;9.694;2024-01-15T10:14:52;5.90;;;1.73;;
77146;SDS011;66121;52.584;9.694;2024-01-15T10:17:17;9.07;;;2.72;;
77146;SDS011;66121;52.584;9.694;2024-01-15T10:19:43;5.03;;;2.17;;
77146;SDS011;66121;52.584;9.694;2024-01-15T10:22:10;5.78;;;1.52;;
77146;SDS011;66121;52.584;9.694;2024-01-15T10:24:40;3.90;;;1.90;;
77146;SDS011;66121;52.584;9.694;2024-01-15T10:27:06;5.82;;;2.13;;
77146;SDS011;66121;52.584;9.694;2024-01-15T10:29:33;6.57;;;1.55;;
77146;SDS011;66121;52.584;9.694;2024-01-15T10:31:58;4.75;;;2.35;;
77146;SDS011;66121;52.584;9.694;2024-01-15T10:34:24;5.53;;;1.90;;
77146;SDS011;66121;52.584;9.694;2024-01-15T10:36:50;5.25;;;2.10;;
77146;SDS011;66121;52.584;9.694;2024-01-15T10:39:20;6.88;;;2.63;;
77146;SDS011;66121;52.584;9.694;2024-01-15T10:41:49;5.80;;;1.98;;
77146;SDS011;66121;52.584;9.694;2024-01-15T10:44:16;3.40;;;2.05;;
77146;SDS011;66121;52.584;9.694;2024-01-15T10:46:41;8.05;;;2.40;;
77146;SDS011;66121;52.584;9.694;2024-01-15T10:49:08;7.30;;;2.33;;
77146;SDS011;66121;52.584;9.694;2024-01-15T10:51:36;3.33;;;1.73;;
77146;SDS011;66121;52.584;9.694;2024-01-15T10:54:01;8.70;;;2.35;;
77146;SDS011;66121;52.584;9.694;2024-01-15T10:56:27;4.75;;;1.92;;
77146;SDS011;66121;52.584;9.694;2024-01-15T10:58:55;6.15;;;2.17;;
77146;SDS011;66121;52.584;9.694;2024-01-15T11:01:21;6.93;;;2.25;;
77146;SDS011;66121;52.584;9.694;2024-01-15T11:03:47;7.55;;;1.95;;
77146;SDS011;66121;52.584;9.694;2024-01-15T11:06:16;7.78;;;2.22;;
77146;SDS011;66121;52.584;9.694;2024-01-15T11:08:44;7.38;;;2.55;;
77146;SDS011;66121;52.584;9.694;2024-01-15T11:11:13;4.35;;;1.98;;
77146;SDS011;66121;52.584;9.694;2024-01-15T11:16:07;9.33;;;2.43;;
77146;SDS011;66121;52.584;9.694;2024-01-15T11:18:43;8.20;;;3.78;;
77146;SDS011;66121;52.584;9.694;2024-01-15T11:21:26;4.97;;;2.30;;
77146;SDS011;66121;52.584;9.694;2024-01-15T11:23:56;6.00;;;2.22;;
77146;SDS011;66121;52.584;9.694;2024-01-15T11:28:54;5.78;;;1.73;;
77146;SDS011;66121;52.584;9.694;2024-01-15T11:31:20;2.85;;;1.83;;
77146;SDS011;66121;52.584;9.694;2024-01-15T11:33:51;6.45;;;1.83;;
77146;SDS011;66121;52.584;9.694;2024-01-15T11:36:16;10.40;;;1.70;;
77146;SDS011;66121;52.584;9.694;2024-01-15T11:38:42;10.15;;;2.58;;
77146;SDS011;66121;52.584;9.694;2024-01-15T11:41:14;5.03;;;2.05;;
77146;SDS011;66121;52.584;9.694;2024-01-15T11:43:41;6.78;;;2.28;;
77146;SDS011;66121;52.584;9.694;2024-01-15T11:46:08;4.57;;;2.10;;
77146;SDS011;66121;52.584;9.694;2024-01-15T11:48:42;6.15;;;2.28;;
77146;SDS011;66121;52.584;9.694;2024-01-15T11:51:12;7.78;;;2.50;;
77146;SDS011;66121;52.584;9.694;2024-01-15T11:53:43;6.15;;;2.35;;
77146;SDS011;66121;52.584;9.694;2024-01-15T11:56:15;3.58;;;2.17;;
77146;SDS011;66121;52.584;9.694;2024-01-15T11:58:42;6.90;;;2.58;;
77146;SDS011;66121;52.584;9.694;2024-01-15T12:01:08;8.23;;;2.25;;
77146;SDS011;66121;52.584;9.694;2024-01-15T12:03:34;7.72;;;2.25;;
77146;SDS011;66121;52.584;9.694;2024-01-15T12:05:59;8.65;;;3.00;;
77146;SDS011;66121;52.584;9.694;2024-01-15T12:08:26;3.92;;;2.28;;
77146;SDS011;66121;52.584;9.694;2024-01-15T12:10:52;13.15;;;2.35;;
77146;SDS011;66121;52.584;9.694;2024-01-15T12:13:18;10.02;;;2.90;;
77146;SDS011;66121;52.584;9.694;2024-01-15T12:15:46;7.68;;;2.85;;
77146;SDS011;66121;52.584;9.694;2024-01-15T12:18:14;7.93;;;2.60;;
77146;SDS011;66121;52.584;9.694;2024-01-15T12:20:44;5.65;;;2.03;;
77146;SDS011;66121;52.584;9.694;2024-01-15T12:23:13;9.05;;;2.83;;
77146;SDS011;66121;52.584;9.694;2024-01-15T12:25:38;7.60;;;2.40;;
77146;SDS011;66121;52.584;9.694;2024-01-15T12:28:04;5.43;;;2.00;;
77146;SDS011;66121;52.584;9.694;2024-01-15T12:30:30;7.22;;;2.22;;
77146;SDS011;66121;52.584;9.694;2024-01-15T12:33:00;6.20;;;2.75;;
77146;SDS011;66121;52.584;9.694;2024-01-15T12:35:29;8.02;;;2.10;;
77146;SDS011;66121;52.584;9.694;2024-01-15T12:37:55;7.72;;;2.10;;
77146;SDS011;66121;52.584;9.694;2024-01-15T12:40:21;5.30;;;2.22;;
77146;SDS011;66121;52.584;9.694;2024-01-15T12:42:47;7.60;;;2.38;;
77146;SDS011;66121;52.584;9.694;2024-01-15T12:45:12;8.57;;;2.17;;
77146;SDS011;66121;52.584;9.694;2024-01-15T12:47:39;5.97;;;2.65;;
77146;SDS011;66121;52.584;9.694;2024-01-15T12:50:06;6.20;;;2.00;;
77146;SDS011;66121;52.584;9.694;2024-01-15T12:52:35;9.82;;;2.50;;
77146;SDS011;66121;52.584;9.694;2024-01-15T12:55:02;2.67;;;2.00;;
77146;SDS011;66121;52.584;9.694;2024-01-15T12:57:32;7.25;;;2.45;;
77146;SDS011;66121;52.584;9.694;2024-01-15T12:59:57;4.72;;;2.13;;
77146;SDS011;66121;52.584;9.694;2024-01-15T13:02:22;7.73;;;2.50;;
77146;SDS011;66121;52.584;9.694;2024-01-15T13:04:49;7.68;;;2.17;;
77146;SDS011;66121;52.584;9.694;2024-01-15T13:07:15;9.82;;;2.72;;
77146;SDS011;66121;52.584;9.694;2024-01-15T13:09:40;9.43;;;2.60;;
77146;SDS011;66121;52.584;9.694;2024-01-15T13:12:05;11.53;;;3.03;;
77146;SDS011;66121;52.584;9.694;2024-01-15T13:14:31;7.68;;;2.28;;
77146;SDS011;66121;52.584;9.694;2024-01-15T13:16:57;6.68;;;3.03;;
77146;SDS011;66121;52.584;9.694;2024-01-15T13:19:24;6.80;;;3.25;;
77146;SDS011;66121;52.584;9.694;2024-01-15T13:21:49;4.80;;;2.10;;
77146;SDS011;66121;52.584;9.694;2024-01-15T13:24:16;6.97;;;2.60;;
77146;SDS011;66121;52.584;9.694;2024-01-15T13:26:42;6.20;;;2.25;;
77146;SDS011;66121;52.584;9.694;2024-01-15T13:29:07;6.72;;;2.78;;
77146;SDS011;66121;52.584;9.694;2024-01-15T13:31:33;11.60;;;2.28;;
77146;SDS011;66121;52.584;9.694;2024-01-15T13:33:58;3.42;;;2.03;;
77146;SDS011;66121;52.584;9.694;2024-01-15T13:36:25;6.15;;;2.10;;
77146;SDS011;66121;52.584;9.694;2024-01-15T13:38:51;6.55;;;2.13;;
77146;SDS011;66121;52.584;9.694;2024-01-15T13:41:20;5.97;;;2.28;;
77146;SDS011;66121;52.584;9.694;2024-01-15T13:43:55;6.50;;;2.80;;
77146;SDS011;66121;52.584;9.694;2024-01-15T13:46:23;11.57;;;2.45;;
77146;SDS011;66121;52.584;9.694;2024-01-15T13:48:51;7.32;;;2.08;;
77146;SDS011;66121;52.584;9.694;2024-01-15T13:51:17;7.47;;;1.70;;
77146;SDS011;66121;52.584;9.694;2024-01-15T13:53:43;8.73;;;1.80;;
77146;SDS011;66121;52.584;9.694;2024-01-15T13:56:08;4.53;;;1.90;;
77146;SDS011;66121;52.584;9.694;2024-01-15T13:58:35;4.85;;;1.77;;
77146;SDS011;66121;52.584;9.694;2024-01-15T14:01:01;2.55;;;1.67;;
77146;SDS011;66121;52.584;9.694;2024-01-15T14:03:26;4.53;;;1.83;;
77146;SDS011;66121;52.584;9.694;2024-01-15T14:05:52;5.23;;;1.63;;
77146;SDS011;66121;52.584;9.694;2024-01-15T14:08:17;6.07;;;2.08;;
77146;SDS011;66121;52.584;9.694;2024-01-15T14:10:42;7.00;;;1.58;;
77146;SDS011;66121;52.584;9.694;2024-01-15T14:13:08;6.45;;;2.15;;
77146;SDS011;66121;52.584;9.694;2024-01-15T14:15:33;6.20;;;1.85;;
77146;SDS011;66121;52.584;9.694;2024-01-15T14:17:59;4.72;;;1.80;;
77146;SDS011;66121;52.584;9.694;2024-01-15T14:20:26;7.78;;;1.90;;
77146;SDS011;66121;52.584;9.694;2024-01-15T14:22:51;5.85;;;2.20;;
77146;SDS011;66121;52.584;9.694;2024-01-15T14:25:16;8.20;;;2.00;;
77146;SDS011;66121;52.584;9.694;2024-01-15T14:27:42;5.38;;;2.03;;
77146;SDS011;66121;52.584;9.694;2024-01-15T14:30:07;6.00;;;1.97;;
77146;SDS011;66121;52.584;9.694;2024-01-15T14:32:33;5.95;;;1.52;;
77146;SDS011;66121;52.584;9.694;2024-01-15T14:34:59;6.80;;;2.00;;
77146;SDS011;66121;52.584;9.694;2024-01-15T14:37:25;6.75;;;2.63;;
77146;SDS011;66121;52.584;9.694;2024-01-15T14:39:50;3.25;;;1.83;;
77146;SDS011;66121;52.584;9.694;2024-01-15T14:42:17;7.30;;;1.90;;